South Dennis, MA (02660)

8:20 AM EDT on August 04, 2015 (GMT -0400)
Hazelwood Road | | Change Station
CLOSE
Current Station
Personal Weather Station
Location: South Dennis, MA
Elevation: 41 ft
Nearby Weather Stations
Active Advisory: Severe Thunderstorm Warning

Elev 41 ft 41.71 °N, 70.18 °W | Updated 12 minutes ago

Overcast
Overcast
67.7 °F
Feels Like 67.7 °F
N
2.0
Wind Variable Wind from North
Gusts 6.0 mph

Today
High -- | Low -- °F
--% Chance of Precip.
Yesterday
High -- | Low -- °F
Precip. -- in
5:37 AM 7:55 PM
Waning Gibbous, 78% visible
Pressure 29.90 in
Visibility 5.0 miles
Clouds Few 1500 ft
Mostly Cloudy 2600 ft
Overcast 6000 ft
Dew Point 66 °F
Humidity 93%
Rainfall 0.32 in
Snow Depth Not available.
UV 0.0 out of 12
Pollen 5.70 out of 12
Air Quality Not available.
Flu Activity Not available.
SPECI KHYA 041209Z 01005KT 5SM BR FEW015 BKN026 OVC060 19/18 A2990 RMK AO2 LTG DSNT ALQDS RAE09 TSE09 P0027 T01890178

More Conditions Fewer Conditions

Pressure 29.90 in
Visibility 5.0 miles
Clouds Few 1500 ft
Mostly Cloudy 2600 ft
Overcast 6000 ft
Dew Point 66 °F
Humidity 93%
Rainfall 0.32 in
Snow Depth Not available.
UV 0.0 out of 12
Pollen 5.70 out of 12
Air Quality Not available.
Flu Activity Not available.
SPECI KHYA 041209Z 01005KT 5SM BR FEW015 BKN026 OVC060 19/18 A2990 RMK AO2 LTG DSNT ALQDS RAE09 TSE09 P0027 T01890178

More Conditions Fewer Conditions

10-Day Weather Forecast

×

Almanac

Astronomy

Aug. 04, 2015 Rise Set
Actual Time
Civil Twilight
Nautical Twilight
Astronomical Twilight
Moon
Length of Visible Light
Length of Day
Tomorrow will be .
, % of the Moon is Illuminated

Today's Extremes

State Highs State Lows

Community

WunderPhotos

Upload Photos

1,843,910 photos uploaded!

WunderBlogs® & News

Nearby

Air Quality

  Air Quality AQ Index Pollutant
Not available.

Snow Depth

Station Depth Elevation

Earthquake Activity

City Distance Mag. Time & Date
Minimum magnitude displayed is 2.5.

Coastal Water Temperatures

Place Temperature

Stations

Nearby Weather Stations

Station Location Temp. Windchill Dew Point Humidity Wind Precip. Elev Updated Type
                   
Severe Thunderstorm Warning
Statement as of 8:17 AM EDT on August 04, 2015

... The Severe Thunderstorm Warning for northeastern Barnstable County
has expired...

the line of storms which prompted the warning have moved out of the
area. Therefore the warning has been allowed to expire.

Lat... Lon 4175 6993 4177 6994 4172 7000 4172 6997
      4166 6998 4165 7027 4172 7028 4179 7002
      4191 7000 4203 7009 4207 7024 4208 7022
      4202 7003
time... Mot... loc 1212z 263deg 47kt 4218 7034 4168 7018


Kjc